Time;durP1;ratioP1;P1;durP2;ratioP2;P2;SDS_P1;SDS_P2;PMS_P1;PMS_P2;Temp;Humidity;BMP_temperature;BMP_pressure;BME280_temperature;BME280_humidity;BME280_pressure;Samples;Min_cycle;Max_cycle;Signal;HPM_P1;HPM_P2
2022/08/26 00:01:43;;;;;;;20.00;11.25;;;22.20;99.90;;;;;;4974523;28;20505;-61
2022/08/26 00:04:10;;;;;;;16.30;10.90;;;22.20;99.90;;;;;;4974177;28;20035;-62
2022/08/26 00:06:36;;;;;;;22.30;11.23;;;22.10;99.90;;;;;;4974710;28;20084;-61
2022/08/26 00:09:03;;;;;;;18.92;10.55;;;22.10;99.90;;;;;;4974580;28;20038;-63
2022/08/26 00:11:29;;;;;;;18.58;10.98;;;22.00;99.90;;;;;;4974340;28;20130;-63
2022/08/26 00:13:55;;;;;;;15.18;10.13;;;22.10;99.90;;;;;;4973120;28;20061;-63
2022/08/26 00:16:22;;;;;;;18.05;11.10;;;21.90;99.90;;;;;;4974296;28;20073;-61
2022/08/26 00:18:48;;;;;;;15.45;11.48;;;21.90;99.90;;;;;;4974657;28;20039;-62
2022/08/26 00:21:14;;;;;;;19.75;11.70;;;21.70;99.90;;;;;;4974493;28;20383;-62
2022/08/26 00:23:40;;;;;;;18.45;11.80;;;21.70;99.90;;;;;;4972138;28;20067;-62
2022/08/26 00:26:07;;;;;;;16.42;12.02;;;21.70;99.90;;;;;;4974323;28;20047;-62
2022/08/26 00:28:33;;;;;;;20.70;12.05;;;21.60;99.90;;;;;;4973649;28;20086;-62
2022/08/26 00:30:59;;;;;;;16.83;11.80;;;21.40;99.90;;;;;;4974180;28;20051;-62
2022/08/26 00:33:25;;;;;;;19.85;12.77;;;21.50;99.90;;;;;;4973964;28;20089;-62
2022/08/26 00:35:55;;;;;;;19.00;12.93;;;21.40;99.90;;;;;;4974495;28;20173;-62
2022/08/26 00:38:21;;;;;;;23.45;16.10;;;21.30;99.90;;;;;;4974402;28;20082;-62
2022/08/26 00:40:56;;;;;;;22.63;17.67;;;21.20;99.90;;;;;;4974149;28;20062;-62
2022/08/26 00:43:25;;;;;;;27.80;18.20;;;21.10;99.90;;;;;;4974085;28;20479;-62
2022/08/26 00:46:00;;;;;;;30.58;20.52;;;21.10;99.90;;;;;;4973845;28;20038;-62
2022/08/26 00:48:28;;;;;;;32.43;22.20;;;20.90;99.90;;;;;;4974252;28;20121;-62
2022/08/26 00:51:00;;;;;;;27.02;22.50;;;20.90;99.90;;;;;;4974003;28;20175;-62
2022/08/26 00:53:29;;;;;;;31.13;22.23;;;20.80;99.90;;;;;;4974006;28;20154;-62
2022/08/26 00:56:08;;;;;;;31.55;24.85;;;20.80;99.90;;;;;;4973977;28;20159;-62
2022/08/26 00:58:36;;;;;;;33.60;25.10;;;20.70;99.90;;;;;;4956794;28;20186;-63
2022/08/26 01:01:03;;;;;;;33.22;26.30;;;20.80;99.90;;;;;;4974083;28;20401;-62
2022/08/26 01:03:32;;;;;;;35.75;26.73;;;20.60;99.90;;;;;;4973820;28;20038;-62
2022/08/26 01:06:01;;;;;;;35.90;27.48;;;20.60;99.90;;;;;;4973942;28;20043;-62
2022/08/26 01:08:27;;;;;;;37.42;28.98;;;20.60;99.90;;;;;;4973920;28;20051;-62
2022/08/26 01:10:54;;;;;;;37.50;29.38;;;20.50;99.90;;;;;;4973624;28;20489;-62
2022/08/26 01:13:20;;;;;;;39.30;29.63;;;20.50;99.90;;;;;;4973774;28;20041;-62
2022/08/26 01:15:50;;;;;;;43.63;31.48;;;20.40;99.90;;;;;;4973852;28;20422;-62
2022/08/26 01:18:17;;;;;;;41.00;32.13;;;20.40;99.90;;;;;;4973870;28;20050;-62
2022/08/26 01:21:11;;;;;;;37.13;32.08;;;20.40;99.90;;;;;;4973835;28;20391;-62
2022/08/26 01:23:49;;;;;;;42.88;32.53;;;20.40;99.90;;;;;;4973754;28;20042;-62
2022/08/26 01:26:25;;;;;;;45.88;32.70;;;21.30;99.90;;;;;;4975325;28;20057;-62
2022/08/26 01:28:54;;;;;;;42.25;35.15;;;20.30;99.90;;;;;;4977177;28;20038;-62
2022/08/26 01:31:23;;;;;;;39.13;33.13;;;20.20;99.90;;;;;;4976034;28;20047;-62
2022/08/26 01:34:00;;;;;;;43.25;33.97;;;19.10;99.90;;;;;;4977025;28;20039;-63
2022/08/26 01:36:27;;;;;;;43.38;34.05;;;20.20;99.90;;;;;;4977152;28;20045;-63
2022/08/26 01:38:52;;;;;;;45.00;35.33;;;20.10;99.90;;;;;;4976845;28;20038;-63
2022/08/26 01:41:20;;;;;;;46.60;34.33;;;20.10;99.90;;;;;;4976992;28;20050;-63
2022/08/26 01:43:50;;;;;;;44.33;34.30;;;20.20;99.90;;;;;;4977018;28;20047;-63
2022/08/26 01:46:17;;;;;;;45.92;34.83;;;20.10;99.90;;;;;;4976911;28;20380;-62
2022/08/26 01:48:47;;;;;;;46.35;33.67;;;19.70;99.90;;;;;;4977321;28;20054;-62
2022/08/26 01:51:14;;;;;;;45.88;33.13;;;20.10;99.90;;;;;;4976845;28;20051;-63
2022/08/26 01:53:41;;;;;;;43.88;32.85;;;19.30;99.90;;;;;;4976877;28;20061;-62
2022/08/26 01:56:08;;;;;;;42.55;32.80;;;20.00;99.90;;;;;;4976722;28;20047;-63
2022/08/26 01:58:40;;;;;;;40.30;32.22;;;20.00;99.90;;;;;;4976720;28;20070;-63
2022/08/26 02:01:06;;;;;;;41.95;32.33;;;20.00;99.90;;;;;;4976758;28;20082;-62
2022/08/26 02:03:35;;;;;;;41.28;33.05;;;19.90;99.90;;;;;;4976796;28;20083;-62
2022/08/26 02:06:06;;;;;;;42.78;34.35;;;20.10;99.90;;;;;;4976792;28;20058;-62
2022/08/26 02:08:52;;;;;;;41.78;33.22;;;19.90;99.90;;;;;;4976410;28;20042;-62
2022/08/26 02:11:18;;;;;;;44.65;34.17;;;19.90;99.90;;;;;;4976649;28;20443;-62
2022/08/26 02:14:01;;;;;;;42.53;33.83;;;19.90;99.90;;;;;;4976486;28;20475;-62
2022/08/26 02:16:31;;;;;;;40.67;32.72;;;19.70;99.90;;;;;;4976535;28;20082;-64
2022/08/26 02:18:58;;;;;;;44.67;34.08;;;19.80;99.90;;;;;;4976645;28;20085;-62
2022/08/26 02:21:24;;;;;;;51.20;35.97;;;20.00;99.90;;;;;;4958886;28;20177;-62
2022/08/26 02:23:51;;;;;;;50.95;35.80;;;19.80;99.90;;;;;;4976000;28;20059;-63
2022/08/26 02:26:21;;;;;;;51.10;37.10;;;19.80;99.90;;;;;;4976384;28;20059;-63
2022/08/26 02:29:09;;;;;;;51.40;37.08;;;19.80;99.90;;;;;;4976135;28;20046;-62
2022/08/26 02:31:35;;;;;;;47.85;35.83;;;20.70;99.90;;;;;;4976315;28;20125;-63
2022/08/26 02:34:13;;;;;;;56.22;39.00;;;19.90;99.90;;;;;;4958693;28;20182;-62
2022/08/26 02:36:39;;;;;;;56.15;38.67;;;20.00;99.90;;;;;;4976205;28;20049;-62
2022/08/26 02:39:06;;;;;;;55.22;38.15;;;20.00;99.90;;;;;;4975428;28;20050;-62
2022/08/26 02:41:33;;;;;;;62.78;39.67;;;20.00;99.90;;;;;;4976001;28;20125;-62
2022/08/26 02:43:59;;;;;;;57.20;38.05;;;20.00;99.90;;;;;;4975813;28;20047;-62
2022/08/26 02:46:25;;;;;;;60.92;38.55;;;20.00;99.90;;;;;;4975752;28;20046;-62
2022/08/26 02:48:51;;;;;;;53.88;37.75;;;20.00;99.90;;;;;;4975582;28;20038;-63
2022/08/26 02:51:16;;;;;;;59.63;37.10;;;20.10;99.90;;;;;;4975783;28;20042;-62
2022/08/26 02:53:42;;;;;;;56.00;36.70;;;20.00;99.90;;;;;;4973663;28;20046;-63
2022/08/26 02:56:09;;;;;;;55.67;36.95;;;20.10;99.90;;;;;;4974020;28;20042;-62
2022/08/26 02:58:35;;;;;;;54.50;35.88;;;20.80;99.90;;;;;;4974036;28;20066;-62
2022/08/26 03:01:01;;;;;;;53.55;34.45;;;20.20;99.90;;;;;;4973535;28;20550;-62
2022/08/26 03:03:26;;;;;;;58.05;36.95;;;20.50;99.90;;;;;;4973329;28;20141;-62
2022/08/26 03:05:52;;;;;;;53.95;35.20;;;20.10;99.90;;;;;;4973769;28;20047;-62
2022/08/26 03:08:19;;;;;;;57.78;35.08;;;20.00;99.90;;;;;;4975003;28;20047;-62
2022/08/26 03:10:46;;;;;;;50.40;34.10;;;20.20;99.90;;;;;;4958382;28;20051;-62
2022/08/26 03:13:12;;;;;;;55.78;34.33;;;19.50;99.90;;;;;;4975458;28;20049;-62
2022/08/26 03:15:38;;;;;;;51.35;33.83;;;20.10;99.90;;;;;;4975276;28;20085;-62
2022/08/26 03:18:04;;;;;;;62.17;36.05;;;20.20;99.90;;;;;;4975124;28;20043;-62
2022/08/26 03:20:30;;;;;;;54.10;34.03;;;20.20;99.90;;;;;;4975360;28;20045;-62
2022/08/26 03:22:56;;;;;;;50.53;34.25;;;20.40;99.90;;;;;;4975282;28;20518;-62
2022/08/26 03:25:24;;;;;;;52.25;34.22;;;20.20;99.90;;;;;;4974975;28;20130;-62
2022/08/26 03:27:51;;;;;;;57.67;34.38;;;19.90;99.90;;;;;;4974973;28;20035;-62
2022/08/26 03:33:03;;;;;;;57.67;34.67;;;20.20;99.90;;;;;;4974914;28;20050;-62
2022/08/26 03:35:30;;;;;;;49.30;32.92;;;20.40;99.90;;;;;;4974898;28;20035;-62
2022/08/26 03:37:55;;;;;;;50.70;34.28;;;20.20;99.90;;;;;;4975056;28;20042;-63
2022/08/26 03:40:22;;;;;;;55.38;33.42;;;20.20;99.90;;;;;;4974897;28;20047;-62
2022/08/26 03:42:48;;;;;;;53.78;31.90;;;20.20;99.90;;;;;;4974784;28;20492;-62
2022/08/26 03:45:16;;;;;;;52.55;33.53;;;20.00;99.90;;;;;;4974672;28;20042;-62
2022/08/26 03:47:42;;;;;;;55.35;33.28;;;20.20;99.90;;;;;;4974953;28;20118;-62
2022/08/26 03:50:11;;;;;;;51.25;32.75;;;20.20;99.90;;;;;;4974768;28;20043;-62
2022/08/26 03:52:36;;;;;;;54.85;31.92;;;20.30;99.90;;;;;;4974591;28;20054;-62
2022/08/26 03:55:05;;;;;;;48.30;32.00;;;20.20;99.90;;;;;;4974644;28;20034;-62
2022/08/26 03:57:31;;;;;;;55.85;32.00;;;20.20;99.90;;;;;;4973686;28;20053;-62
2022/08/26 03:59:57;;;;;;;56.15;32.05;;;20.20;99.90;;;;;;4974779;28;20042;-62
2022/08/26 04:02:24;;;;;;;47.03;30.77;;;20.20;99.90;;;;;;4974732;28;20480;-63
2022/08/26 04:04:50;;;;;;;45.35;30.50;;;20.20;99.90;;;;;;4974669;28;20046;-62
2022/08/26 04:07:17;;;;;;;54.22;31.27;;;20.20;99.90;;;;;;4974437;28;20055;-63
2022/08/26 04:09:43;;;;;;;51.50;30.25;;;20.20;99.90;;;;;;4974956;28;20042;-63
2022/08/26 04:12:11;;;;;;;57.47;31.52;;;20.30;99.90;;;;;;4974293;28;20058;-62
2022/08/26 04:14:37;;;;;;;53.05;29.33;;;19.80;99.90;;;;;;4974512;28;20098;-62
2022/08/26 04:17:03;;;;;;;48.22;29.38;;;20.20;99.90;;;;;;4974479;28;20039;-62
2022/08/26 04:19:31;;;;;;;50.72;29.15;;;20.50;99.90;;;;;;4974461;28;20035;-62
2022/08/26 04:21:57;;;;;;;50.60;29.70;;;20.20;99.90;;;;;;4974667;28;20054;-62
2022/08/26 04:24:25;;;;;;;48.40;29.30;;;20.30;99.90;;;;;;4974186;28;20166;-62
2022/08/26 04:26:52;;;;;;;47.00;29.23;;;20.30;99.90;;;;;;4974017;28;20051;-62
2022/08/26 04:29:23;;;;;;;46.97;28.60;;;20.30;99.90;;;;;;4957181;28;20558;-62
2022/08/26 04:31:50;;;;;;;45.13;29.67;;;20.00;99.90;;;;;;4974111;28;20487;-62
2022/08/26 04:34:16;;;;;;;50.55;29.90;;;20.30;99.90;;;;;;4974153;28;20038;-62
2022/08/26 04:36:43;;;;;;;48.47;28.77;;;20.30;99.90;;;;;;4974324;28;20047;-62
2022/08/26 04:39:16;;;;;;;51.85;29.58;;;20.60;99.90;;;;;;4973980;28;20038;-63
2022/08/26 04:41:43;;;;;;;49.35;29.73;;;20.80;99.90;;;;;;4974360;28;20043;-62
2022/08/26 04:44:09;;;;;;;46.58;28.75;;;20.30;99.90;;;;;;4974287;28;20050;-62
2022/08/26 04:46:35;;;;;;;46.28;28.98;;;20.30;99.90;;;;;;4974064;28;20404;-62
2022/08/26 04:49:05;;;;;;;45.03;29.33;;;20.30;99.90;;;;;;4974100;28;20043;-62
2022/08/26 04:51:32;;;;;;;49.22;28.30;;;20.30;99.90;;;;;;4973890;28;20054;-62
2022/08/26 04:53:58;;;;;;;57.30;27.83;;;20.20;99.90;;;;;;4973815;28;20047;-62
2022/08/26 04:56:26;;;;;;;44.08;27.15;;;20.20;99.90;;;;;;4973884;28;20039;-62
2022/08/26 04:58:51;;;;;;;47.25;26.13;;;20.30;99.90;;;;;;4973840;28;20041;-62
2022/08/26 05:01:18;;;;;;;46.92;26.63;;;20.40;99.90;;;;;;4975928;28;20543;-62
2022/08/26 05:03:43;;;;;;;41.78;26.42;;;20.40;99.90;;;;;;4977639;28;20089;-62
2022/08/26 05:06:11;;;;;;;38.70;24.55;;;20.40;99.90;;;;;;4977535;28;20074;-62
2022/08/26 05:08:37;;;;;;;43.28;25.85;;;20.50;99.90;;;;;;4977873;28;20039;-62
2022/08/26 05:11:05;;;;;;;46.45;25.33;;;20.40;99.90;;;;;;4977680;28;20092;-62
2022/08/26 05:13:33;;;;;;;47.20;25.17;;;20.40;99.90;;;;;;4977576;28;20042;-62
2022/08/26 05:16:06;;;;;;;41.97;24.27;;;20.10;99.90;;;;;;4977524;28;20113;-62
2022/08/26 05:18:33;;;;;;;40.05;24.88;;;20.40;99.90;;;;;;4977490;28;20094;-61
2022/08/26 05:21:00;;;;;;;42.60;24.23;;;20.50;99.90;;;;;;4977180;28;20038;-61
2022/08/26 05:23:30;;;;;;;41.55;24.30;;;20.50;99.90;;;;;;4977325;28;20057;-61
2022/08/26 05:25:58;;;;;;;41.42;24.42;;;20.50;99.90;;;;;;4977259;28;20482;-61
2022/08/26 05:28:27;;;;;;;40.80;24.48;;;20.60;99.90;;;;;;4977200;28;20074;-61
2022/08/26 05:30:54;;;;;;;40.53;23.60;;;20.60;99.90;;;;;;4977085;28;20482;-61
2022/08/26 05:33:20;;;;;;;37.00;22.73;;;20.60;99.90;;;;;;4977043;28;20039;-61
2022/08/26 05:35:46;;;;;;;40.03;23.67;;;20.60;99.90;;;;;;4976146;28;20043;-61
2022/08/26 05:38:18;;;;;;;38.25;22.23;;;20.40;99.90;;;;;;4954569;28;20454;-61
2022/08/26 05:40:47;;;;;;;36.47;20.75;;;20.60;99.90;;;;;;4976155;28;20061;-61
2022/08/26 05:43:14;;;;;;;36.40;21.85;;;20.40;99.90;;;;;;4958127;28;20106;-61
2022/08/26 05:45:44;;;;;;;34.60;21.90;;;20.50;99.90;;;;;;4975924;28;20096;-61
2022/08/26 05:48:11;;;;;;;39.53;20.95;;;20.90;99.90;;;;;;4975704;28;20363;-62
2022/08/26 05:50:46;;;;;;;37.78;20.60;;;20.80;99.90;;;;;;4975529;28;20035;-61
2022/08/26 05:53:14;;;;;;;38.45;22.20;;;19.90;99.90;;;;;;4975176;28;20054;-61
2022/08/26 05:55:48;;;;;;;37.85;21.52;;;20.90;99.90;;;;;;4974298;28;20109;-62
2022/08/26 05:58:14;;;;;;;35.40;21.55;;;20.90;99.90;;;;;;4959350;28;20104;-61
2022/08/26 06:00:40;;;;;;;36.33;21.05;;;20.90;99.90;;;;;;4959118;28;20061;-61
2022/08/26 06:03:07;;;;;;;33.20;20.80;;;20.90;99.90;;;;;;4976705;28;20046;-61
2022/08/26 06:05:40;;;;;;;37.60;19.65;;;20.90;99.90;;;;;;4976606;28;20043;-61
2022/08/26 06:08:13;;;;;;;35.22;19.60;;;21.00;99.90;;;;;;4975302;28;20046;-62
2022/08/26 06:10:51;;;;;;;33.10;19.30;;;21.00;99.90;;;;;;4975616;28;20038;-62
2022/08/26 06:13:25;;;;;;;30.02;19.02;;;20.90;99.90;;;;;;4974256;28;20109;-61
2022/08/26 06:15:52;;;;;;;29.50;17.60;;;21.10;99.90;;;;;;4975965;28;20047;-61
2022/08/26 06:18:26;;;;;;;31.27;17.75;;;22.20;99.90;;;;;;4975958;28;20122;-61
2022/08/26 06:20:53;;;;;;;30.90;17.73;;;21.20;99.90;;;;;;4975866;28;20166;-61
2022/08/26 06:26:06;;;;;;;30.57;17.87;;;21.40;99.90;;;;;;4957114;29;20055;-61
2022/08/26 06:28:33;;;;;;;31.65;18.45;;;21.60;99.90;;;;;;4956940;29;20609;-61
2022/08/26 06:31:01;;;;;;;29.33;18.13;;;21.40;99.90;;;;;;4939619;29;20054;-61
2022/08/26 06:33:27;;;;;;;33.17;18.23;;;21.50;99.90;;;;;;4956731;29;20043;-61
2022/08/26 06:35:54;;;;;;;34.58;18.02;;;21.20;99.90;;;;;;4956500;29;20454;-61
2022/08/26 06:38:21;;;;;;;29.75;16.83;;;21.50;99.90;;;;;;4956809;29;20027;-61
2022/08/26 06:40:50;;;;;;;29.02;16.02;;;21.50;99.90;;;;;;4956731;29;20515;-61
2022/08/26 06:43:24;;;;;;;26.83;16.05;;;21.60;99.90;;;;;;4956585;29;20380;-61
2022/08/26 06:46:01;;;;;;;27.70;16.30;;;21.60;99.90;;;;;;4956526;29;20043;-61
2022/08/26 06:48:31;;;;;;;28.65;15.85;;;21.50;99.90;;;;;;4956356;29;20039;-61
2022/08/26 06:51:04;;;;;;;29.40;14.88;;;21.60;99.90;;;;;;4956469;29;20480;-61
2022/08/26 06:53:29;;;;;;;27.73;15.68;;;22.70;99.90;;;;;;4956306;29;20039;-61
2022/08/26 06:55:56;;;;;;;27.90;15.10;;;22.10;99.90;;;;;;4956397;29;20114;-61
2022/08/26 06:58:22;;;;;;;24.80;14.15;;;21.80;99.90;;;;;;4939023;29;20046;-61
2022/08/26 07:00:47;;;;;;;25.75;14.80;;;21.90;99.90;;;;;;4956140;29;20464;-61
2022/08/26 07:03:13;;;;;;;23.45;14.45;;;21.90;99.90;;;;;;4956291;29;20499;-61
2022/08/26 07:05:42;;;;;;;26.45;14.73;;;21.80;99.90;;;;;;4956028;29;20036;-61
2022/08/26 07:08:07;;;;;;;31.35;14.90;;;22.00;99.90;;;;;;4956169;29;20043;-61
2022/08/26 07:10:35;;;;;;;29.33;14.55;;;22.10;99.90;;;;;;4956390;29;20043;-61
2022/08/26 07:13:01;;;;;;;28.95;14.25;;;22.10;99.90;;;;;;4955939;29;20039;-61
2022/08/26 07:15:26;;;;;;;25.17;13.63;;;22.00;99.90;;;;;;4955800;29;20200;-61
2022/08/26 07:17:55;;;;;;;24.92;13.35;;;22.20;99.90;;;;;;4956036;29;20417;-61
2022/08/26 07:20:21;;;;;;;27.35;13.18;;;22.30;99.90;;;;;;4950934;29;20514;-61
2022/08/26 07:22:50;;;;;;;29.02;13.75;;;21.00;99.90;;;;;;4955847;29;20070;-61
2022/08/26 07:25:16;;;;;;;25.75;13.02;;;22.30;99.90;;;;;;4970786;28;20063;-62
2022/08/26 07:27:42;;;;;;;28.42;12.93;;;22.40;99.90;;;;;;4974373;28;20050;-62
2022/08/26 07:30:08;;;;;;;28.92;12.30;;;22.50;99.90;;;;;;4957479;28;20403;-62
2022/08/26 07:32:37;;;;;;;25.92;11.77;;;22.50;99.90;;;;;;4974761;28;20089;-62
2022/08/26 07:35:04;;;;;;;22.95;11.85;;;22.50;99.90;;;;;;4974973;28;20043;-63
2022/08/26 07:37:31;;;;;;;25.77;11.10;;;22.50;99.90;;;;;;4975211;28;20050;-62
2022/08/26 07:39:56;;;;;;;24.67;10.93;;;22.60;99.90;;;;;;4957359;28;20051;-62
2022/08/26 07:42:26;;;;;;;23.60;10.40;;;22.60;99.90;;;;;;4974588;28;20064;-62
2022/08/26 07:44:52;;;;;;;25.67;10.05;;;22.60;99.90;;;;;;4974607;28;20479;-62
2022/08/26 07:47:21;;;;;;;19.83;9.80;;;23.30;99.90;;;;;;4974590;28;20047;-63
2022/08/26 07:49:47;;;;;;;22.48;9.50;;;22.70;99.90;;;;;;4974494;28;20198;-63
2022/08/26 07:52:12;;;;;;;23.75;9.85;;;22.70;99.90;;;;;;4974592;28;20137;-61
2022/08/26 07:54:39;;;;;;;26.30;10.35;;;22.80;99.90;;;;;;4974665;28;20501;-61
2022/08/26 07:57:05;;;;;;;27.70;10.13;;;23.10;99.90;;;;;;4974467;28;20035;-62
2022/08/26 07:59:31;;;;;;;21.15;8.55;;;23.10;99.90;;;;;;4957186;28;20491;-61
2022/08/26 08:02:11;;;;;;;22.30;9.07;;;23.40;99.90;;;;;;4973548;28;20476;-61
2022/08/26 08:04:37;;;;;;;20.80;8.00;;;23.50;99.90;;;;;;4974509;28;20118;-62
2022/08/26 08:07:02;;;;;;;21.90;8.07;;;23.60;99.90;;;;;;4974405;28;20049;-63
2022/08/26 08:09:28;;;;;;;19.65;7.80;;;23.80;99.90;;;;;;4974305;28;20542;-61
2022/08/26 08:11:54;;;;;;;17.98;7.55;;;24.10;99.90;;;;;;4974256;28;20142;-61
2022/08/26 08:14:19;;;;;;;22.08;8.13;;;24.30;99.90;;;;;;4974471;28;20038;-61
2022/08/26 08:16:45;;;;;;;18.55;7.18;;;24.30;99.90;;;;;;4974379;28;20403;-61
2022/08/26 08:19:12;;;;;;;17.52;6.70;;;24.40;99.90;;;;;;4974301;28;20169;-61
2022/08/26 08:21:37;;;;;;;16.13;6.68;;;24.50;99.90;;;;;;4974145;28;20502;-61
2022/08/26 08:24:03;;;;;;;17.83;6.28;;;24.90;99.90;;;;;;4973925;28;20142;-61
2022/08/26 08:26:29;;;;;;;14.45;6.15;;;24.70;99.90;;;;;;4940699;28;20042;-61
2022/08/26 08:28:56;;;;;;;13.93;6.03;;;24.90;99.90;;;;;;4973989;28;20134;-60
2022/08/26 08:31:26;;;;;;;15.10;6.13;;;25.00;99.90;;;;;;4973997;28;20043;-61
2022/08/26 08:33:52;;;;;;;15.70;6.30;;;25.00;99.90;;;;;;4974144;28;20411;-61
2022/08/26 08:36:18;;;;;;;21.40;7.18;;;24.90;99.90;;;;;;4975947;28;20053;-60
2022/08/26 08:38:47;;;;;;;17.15;6.53;;;24.80;99.90;;;;;;4977934;28;20514;-60
2022/08/26 08:41:54;;;;;;;17.23;6.28;;;24.80;99.90;;;;;;4978325;28;20074;-60
2022/08/26 08:44:22;;;;;;;15.20;6.22;;;25.00;99.90;;;;;;4977823;28;20137;-61
2022/08/26 08:46:51;;;;;;;17.00;5.80;;;24.80;99.90;;;;;;4978396;28;20075;-61
2022/08/26 08:49:17;;;;;;;19.23;6.78;;;24.90;99.90;;;;;;4977738;28;20121;-61
2022/08/26 08:51:59;;;;;;;17.92;6.45;;;24.70;99.90;;;;;;4977938;28;20043;-61
2022/08/26 08:54:29;;;;;;;17.08;6.38;;;24.80;99.90;;;;;;4977763;28;20144;-61
2022/08/26 08:57:26;;;;;;;14.32;5.63;;;24.80;99.90;;;;;;4977534;28;20510;-61
2022/08/26 09:00:16;;;;;;;17.17;6.22;;;24.90;99.90;;;;;;4978024;28;20051;-61
2022/08/26 09:02:51;;;;;;;18.90;6.20;;;24.90;99.90;;;;;;4977693;28;20046;-61
2022/08/26 09:05:30;;;;;;;17.27;6.20;;;24.90;99.90;;;;;;4977842;28;20047;-61
2022/08/26 09:08:05;;;;;;;18.40;6.38;;;24.90;99.90;;;;;;4977285;28;20062;-61
2022/08/26 09:10:43;;;;;;;15.52;5.88;;;25.00;99.90;;;;;;4977832;28;20049;-61
2022/08/26 09:13:11;;;;;;;15.48;5.90;;;24.90;99.90;;;;;;4976335;28;20531;-61
2022/08/26 09:16:00;;;;;;;19.20;5.90;;;24.60;99.90;;;;;;4977586;28;20569;-61
2022/08/26 09:18:39;;;;;;;16.02;5.90;;;24.50;99.90;;;;;;4976219;28;20130;-61
2022/08/26 09:21:12;;;;;;;22.63;6.22;;;24.40;99.90;;;;;;4977709;28;20053;-62
2022/08/26 09:23:42;;;;;;;14.55;5.57;;;24.40;99.90;;;;;;4977373;28;20372;-62
2022/08/26 09:26:22;;;;;;;17.48;5.47;;;24.30;99.90;;;;;;4959921;28;20494;-60
2022/08/26 09:29:00;;;;;;;16.30;5.55;;;24.00;99.90;;;;;;4977182;28;20089;-60
2022/08/26 09:31:29;;;;;;;17.25;5.35;;;24.30;99.90;;;;;;4977433;28;20116;-60
2022/08/26 09:34:16;;;;;;;18.65;5.40;;;24.20;99.90;;;;;;4977103;28;20506;-61
2022/08/26 09:36:45;;;;;;;13.57;5.00;;;24.10;99.90;;;;;;4975960;28;20122;-60
2022/08/26 09:39:26;;;;;;;16.42;5.15;;;24.10;99.90;;;;;;4976897;28;20039;-62
2022/08/26 09:42:19;;;;;;;15.38;4.80;;;24.10;99.90;;;;;;4976982;28;20483;-60
2022/08/26 09:45:03;;;;;;;15.73;5.30;;;24.10;99.90;;;;;;4977035;28;20122;-60
2022/08/26 09:47:38;;;;;;;12.25;4.75;;;24.00;99.90;;;;;;4976793;28;20391;-60
2022/08/26 09:50:29;;;;;;;15.63;4.63;;;24.00;99.90;;;;;;4977122;28;20039;-61
2022/08/26 09:53:20;;;;;;;14.60;4.60;;;23.90;99.90;;;;;;4976772;28;20049;-60
2022/08/26 09:56:08;;;;;;;14.73;4.80;;;24.00;99.90;;;;;;4976746;28;20039;-60
2022/08/26 09:58:46;;;;;;;14.52;4.28;;;24.00;99.90;;;;;;4976649;28;20454;-62
2022/08/26 10:01:30;;;;;;;11.40;3.88;;;24.00;99.90;;;;;;4959340;28;20145;-60
2022/08/26 10:04:29;;;;;;;11.48;4.03;;;24.00;99.90;;;;;;4959174;28;20125;-60
2022/08/26 10:07:06;;;;;;;12.55;3.67;;;23.80;99.90;;;;;;4976575;28;20483;-61
2022/08/26 10:09:40;;;;;;;16.50;3.45;;;23.80;99.90;;;;;;4976695;28;20381;-62
2022/08/26 10:12:16;;;;;;;13.63;3.75;;;23.80;99.90;;;;;;4976491;28;20047;-63
2022/08/26 10:14:51;;;;;;;14.30;3.65;;;23.80;99.90;;;;;;4975327;28;20117;-62
2022/08/26 10:17:56;;;;;;;12.90;3.42;;;23.80;99.90;;;;;;4976610;28;20046;-62
2022/08/26 10:20:26;;;;;;;9.65;3.50;;;23.80;99.90;;;;;;4879206;29;20051;-62
2022/08/26 10:23:11;;;;;;;20.42;4.05;;;23.80;99.90;;;;;;4879131;29;20402;-62
2022/08/26 10:25:46;;;;;;;12.65;3.65;;;23.80;99.90;;;;;;4879015;29;20077;-61
2022/08/26 10:28:30;;;;;;;;;;;23.80;99.90;;;;;;4863791;29;20173;-61
2022/08/26 10:31:03;;;;;;;11.60;3.35;;;23.40;99.90;;;;;;4878955;29;20313;-60
2022/08/26 10:33:29;;;;;;;7.97;2.85;;;23.80;99.90;;;;;;4878873;29;20060;-61
2022/08/26 10:36:47;;;;;;;12.65;3.13;;;23.70;99.90;;;;;;4863437;29;20549;-62
2022/08/26 10:39:00;;;;;;;12.38;2.67;;;23.70;99.90;;;;;;4878735;29;20045;-60
2022/08/26 10:41:33;;;;;;;12.80;3.30;;;23.70;99.90;;;;;;4879000;29;20055;-61
2022/08/26 10:44:00;;;;;;;12.18;3.10;;;23.70;99.90;;;;;;4863525;29;20081;-61
2022/08/26 10:46:38;;;;;;;5.88;2.58;;;23.70;99.90;;;;;;4878870;29;20161;-61
2022/08/26 10:49:16;;;;;;;13.45;2.63;;;23.70;99.90;;;;;;4878714;29;20055;-61
2022/08/26 10:52:06;;;;;;;13.20;3.08;;;23.60;99.90;;;;;;4878627;29;20108;-61
2022/08/26 10:54:42;;;;;;;7.78;2.40;;;23.60;99.90;;;;;;4926908;29;20051;-62
2022/08/26 10:57:31;;;;;;;13.70;3.03;;;23.50;99.90;;;;;;4956582;28;20101;-60
2022/08/26 11:02:53;;;;;;;10.98;2.75;;;23.50;99.90;;;;;;4956434;29;20070;-61
2022/08/26 11:05:22;;;;;;;6.43;2.30;;;24.20;99.90;;;;;;4956343;28;20126;-61
2022/08/26 11:07:51;;;;;;;10.25;2.80;;;23.40;99.90;;;;;;4954206;29;20415;-61
2022/08/26 11:10:20;;;;;;;10.80;2.88;;;23.40;99.90;;;;;;4956175;28;20043;-61
2022/08/26 11:12:53;;;;;;;11.80;3.00;;;23.40;99.90;;;;;;4956074;29;20109;-61
2022/08/26 11:15:19;;;;;;;10.05;2.90;;;23.60;99.90;;;;;;4970893;28;20109;-61
2022/08/26 11:17:54;;;;;;;10.80;2.60;;;23.50;99.90;;;;;;4956131;28;20431;-61
2022/08/26 11:20:28;;;;;;;11.57;2.70;;;23.50;99.90;;;;;;4955815;28;20109;-61
2022/08/26 11:23:15;;;;;;;11.48;3.03;;;23.50;99.90;;;;;;4955608;29;20043;-62
2022/08/26 11:26:14;;;;;;;10.50;2.92;;;23.30;99.90;;;;;;4974184;28;20063;-62
2022/08/26 11:28:43;;;;;;;10.45;2.97;;;23.30;99.90;;;;;;4922417;28;20522;-61
2022/08/26 11:31:51;;;;;;;10.43;2.85;;;23.30;99.90;;;;;;4975264;28;20050;-61
2022/08/26 11:34:53;;;;;;;12.85;2.90;;;23.30;99.90;;;;;;4957777;28;20471;-61
2022/08/26 11:37:25;;;;;;;10.20;3.08;;;23.60;99.90;;;;;;4975002;28;20046;-62
2022/08/26 11:39:53;;;;;;;9.63;2.92;;;23.50;99.90;;;;;;4974784;28;20490;-62
2022/08/26 11:42:25;;;;;;;12.95;3.10;;;23.60;99.90;;;;;;4974719;28;20506;-62
2022/08/26 11:44:51;;;;;;;10.85;2.90;;;23.60;99.90;;;;;;4974876;28;20483;-61
2022/08/26 11:47:31;;;;;;;8.18;2.80;;;23.60;99.90;;;;;;4974781;28;20490;-60
2022/08/26 11:50:27;;;;;;;9.75;3.03;;;23.70;99.90;;;;;;4974726;28;20093;-61
2022/08/26 11:52:54;;;;;;;;;;;23.60;99.90;;;;;;4955097;28;20117;-61
2022/08/26 11:55:20;;;;;;;10.52;3.05;;;23.80;99.90;;;;;;4974629;28;20293;-61
2022/08/26 11:57:50;;;;;;;9.45;2.92;;;23.60;99.90;;;;;;4974639;28;20459;-61
2022/08/26 12:00:21;;;;;;;12.30;3.08;;;23.60;99.90;;;;;;4974492;28;20047;-61
2022/08/26 12:02:47;;;;;;;13.90;3.20;;;23.60;99.90;;;;;;4974428;28;20034;-61
2022/08/26 12:05:24;;;;;;;12.10;3.03;;;23.50;99.90;;;;;;4957266;28;20050;-61
2022/08/26 12:07:51;;;;;;;9.90;2.78;;;23.40;99.90;;;;;;4974438;28;20113;-61
2022/08/26 12:10:32;;;;;;;13.45;3.10;;;23.30;99.90;;;;;;4973619;28;20050;-62
2022/08/26 12:13:00;;;;;;;8.38;2.70;;;23.30;99.90;;;;;;4973008;28;20130;-61
2022/08/26 12:15:29;;;;;;;13.35;3.47;;;23.30;99.90;;;;;;4974138;28;20129;-61
2022/08/26 12:17:55;;;;;;;14.00;3.38;;;23.40;99.90;;;;;;4957332;28;20051;-61
2022/08/26 12:20:45;;;;;;;11.55;3.17;;;23.40;99.90;;;;;;4974338;28;20043;-61
2022/08/26 12:23:25;;;;;;;16.67;3.75;;;23.50;99.90;;;;;;4974105;28;20376;-61
2022/08/26 12:26:01;;;;;;;13.15;3.50;;;23.40;99.90;;;;;;4974036;28;20101;-61
2022/08/26 12:28:27;;;;;;;12.77;3.00;;;23.30;99.90;;;;;;4974309;28;20058;-61
2022/08/26 12:31:05;;;;;;;11.70;2.90;;;23.30;99.90;;;;;;4974167;28;20445;-61
2022/08/26 12:33:34;;;;;;;14.05;2.63;;;23.30;99.90;;;;;;4974168;28;20488;-61
2022/08/26 12:36:01;;;;;;;10.85;2.90;;;22.90;99.90;;;;;;4972822;28;20495;-61
2022/08/26 12:38:28;;;;;;;12.50;2.90;;;23.50;99.90;;;;;;4973888;28;20043;-61
2022/08/26 12:40:55;;;;;;;8.23;3.25;;;24.00;99.90;;;;;;4972712;28;20456;-61
2022/08/26 12:43:44;;;;;;;11.80;2.90;;;23.70;99.90;;;;;;4974124;28;20098;-61
2022/08/26 12:46:15;;;;;;;9.90;2.88;;;23.90;99.90;;;;;;4956725;28;20035;-61
2022/08/26 12:48:42;;;;;;;9.38;2.55;;;23.80;99.90;;;;;;4973780;28;20045;-61
2022/08/26 12:51:21;;;;;;;8.07;2.63;;;23.70;99.90;;;;;;4974126;28;20047;-62
2022/08/26 12:53:47;;;;;;;8.07;2.78;;;23.60;99.90;;;;;;4974138;28;20042;-61
2022/08/26 12:56:19;;;;;;;9.02;2.80;;;23.40;99.90;;;;;;4973988;28;20031;-62
2022/08/26 12:59:04;;;;;;;11.75;2.67;;;23.20;99.90;;;;;;4974124;28;20046;-62